createdAt,value
2023-04-03T00:03:05.241Z,4.96
2023-04-03T00:06:30.476Z,4.97
2023-04-03T00:09:55.734Z,4.89
2023-04-03T00:13:21.020Z,4.83
2023-04-03T00:16:46.282Z,4.83
2023-04-03T00:20:11.555Z,4.79
2023-04-03T00:23:36.856Z,4.7
2023-04-03T00:27:02.180Z,4.63
2023-04-03T00:30:27.512Z,4.66
2023-04-03T00:33:52.740Z,4.7
2023-04-03T00:37:18.024Z,4.76
2023-04-03T00:40:43.316Z,4.77
2023-04-03T00:44:08.629Z,4.75
2023-04-03T00:47:33.945Z,4.7
2023-04-03T00:50:59.147Z,4.66
2023-04-03T00:54:24.455Z,4.63
2023-04-03T00:57:49.729Z,4.53
2023-04-03T01:01:15.033Z,4.46
2023-04-03T01:04:40.400Z,4.42
2023-04-03T01:08:05.519Z,4.35
2023-04-03T01:11:30.861Z,4.31
2023-04-03T01:14:56.171Z,4.3
2023-04-03T01:18:21.463Z,4.24
2023-04-03T01:21:46.783Z,4.22
2023-04-03T01:25:12.047Z,4.2
2023-04-03T01:28:38.135Z,4.2
2023-04-03T01:32:03.413Z,4.23
2023-04-03T01:35:28.778Z,4.19
2023-04-03T01:38:54.090Z,4.13
2023-04-03T01:42:19.333Z,4.17
2023-04-03T01:45:44.635Z,4.12
2023-04-03T01:49:09.920Z,4.06
2023-04-03T01:52:35.211Z,3.98
2023-04-03T01:56:00.592Z,3.92
2023-04-03T01:59:25.896Z,3.86
2023-04-03T02:02:51.203Z,3.88
2023-04-03T02:06:16.474Z,3.85
2023-04-03T02:09:41.781Z,3.81
2023-04-03T02:13:07.094Z,3.8
2023-04-03T02:16:32.411Z,3.81
2023-04-03T02:19:59.071Z,3.78
2023-04-03T02:23:24.404Z,3.8
2023-04-03T02:26:49.739Z,3.79
2023-04-03T02:30:15.000Z,3.76
2023-04-03T02:33:40.257Z,3.73
2023-04-03T02:37:05.555Z,3.72
2023-04-03T02:40:30.912Z,3.69
2023-04-03T02:43:56.248Z,3.67
2023-04-03T02:47:21.532Z,3.67
2023-04-03T02:50:46.822Z,3.67
2023-04-03T02:54:12.087Z,3.6
2023-04-03T02:57:37.417Z,3.56
2023-04-03T03:01:02.733Z,3.52
2023-04-03T03:04:28.046Z,3.46
2023-04-03T03:07:53.316Z,3.4
2023-04-03T03:11:18.596Z,3.37
2023-04-03T03:14:44.074Z,3.38
2023-04-03T03:18:09.260Z,3.43
2023-04-03T03:21:34.793Z,3.4
2023-04-03T03:25:00.032Z,3.28
2023-04-03T03:28:25.367Z,3.26
2023-04-03T03:31:50.788Z,3.2
2023-04-03T03:35:16.027Z,3.18
2023-04-03T03:38:41.358Z,3.16
2023-04-03T03:42:06.658Z,3.17
2023-04-03T03:45:31.955Z,3.17
2023-04-03T03:48:57.248Z,3.12
2023-04-03T03:52:22.550Z,3.05
2023-04-03T03:55:47.875Z,3.02
2023-04-03T03:59:13.141Z,3.01
2023-04-03T04:02:38.554Z,2.94
2023-04-03T04:06:03.896Z,2.89
2023-04-03T04:09:29.186Z,2.87
2023-04-03T04:12:54.900Z,2.84
2023-04-03T04:16:19.771Z,2.84
2023-04-03T04:19:45.105Z,2.87
2023-04-03T04:23:10.469Z,2.82
2023-04-03T04:26:35.767Z,2.82
2023-04-03T04:30:01.081Z,2.82
2023-04-03T04:33:26.200Z,2.77
2023-04-03T04:36:51.450Z,2.72
2023-04-03T04:40:16.566Z,2.71
2023-04-03T04:43:41.761Z,2.72
2023-04-03T04:47:06.975Z,2.81
2023-04-03T04:50:32.115Z,2.8
2023-04-03T04:53:57.307Z,2.72
2023-04-03T04:57:22.545Z,2.65
2023-04-03T05:00:47.632Z,2.64
2023-04-03T05:04:12.859Z,2.58
2023-04-03T05:07:38.017Z,2.55
2023-04-03T05:11:03.207Z,2.57
2023-04-03T05:14:28.395Z,2.57
2023-04-03T05:17:53.598Z,2.55
2023-04-03T05:21:18.789Z,2.54
2023-04-03T05:24:43.948Z,2.49
2023-04-03T05:28:09.122Z,2.45
2023-04-03T05:31:34.327Z,2.39
2023-04-03T05:35:00.810Z,2.28
2023-04-03T05:38:24.710Z,2.25
2023-04-03T05:41:49.872Z,2.26
2023-04-03T05:45:15.073Z,2.26
2023-04-03T05:48:40.268Z,2.18
2023-04-03T05:52:05.500Z,2.16
2023-04-03T05:55:30.730Z,2.08
2023-04-03T05:58:55.899Z,2.04
2023-04-03T06:02:21.187Z,2.02
2023-04-03T06:05:46.344Z,2.03
2023-04-03T06:09:11.524Z,2.05
2023-04-03T06:12:36.740Z,2.01
2023-04-03T06:16:02.445Z,1.98
2023-04-03T06:19:27.645Z,1.99
2023-04-03T06:22:52.855Z,1.97
2023-04-03T06:26:18.039Z,1.93
2023-04-03T06:29:43.290Z,1.91
2023-04-03T06:33:08.489Z,1.87
2023-04-03T06:36:33.840Z,1.9
2023-04-03T06:39:59.014Z,1.93
2023-04-03T06:43:24.587Z,1.96
2023-04-03T06:46:49.495Z,2.01
2023-04-03T06:50:14.644Z,2.09
2023-04-03T06:53:39.860Z,2.14
2023-04-03T06:57:05.053Z,2.14
2023-04-03T07:00:30.214Z,2.16
2023-04-03T07:03:55.398Z,2.19
2023-04-03T07:07:20.698Z,2.25
2023-04-03T07:10:45.877Z,2.37
2023-04-03T07:14:13.382Z,2.47
2023-04-03T07:17:39.310Z,2.47
2023-04-03T07:21:04.728Z,2.45
2023-04-03T07:24:29.792Z,2.51
2023-04-03T07:27:59.501Z,2.58
2023-04-03T07:31:24.982Z,2.62
2023-04-03T07:34:51.132Z,2.61
2023-04-03T07:38:16.764Z,2.54
2023-04-03T07:41:42.007Z,2.49
2023-04-03T07:45:07.210Z,2.51
2023-04-03T07:48:32.370Z,2.55
2023-04-03T07:51:57.607Z,2.67
2023-04-03T07:55:22.839Z,2.72
2023-04-03T07:58:48.036Z,2.88
2023-04-03T08:02:13.304Z,2.98
2023-04-03T08:05:38.770Z,3.08
2023-04-03T08:09:03.965Z,3.09
2023-04-03T08:12:29.238Z,3.01
2023-04-03T08:15:54.447Z,3.07
2023-04-03T08:19:25.886Z,3.15
2023-04-03T08:22:44.940Z,3.26
2023-04-03T08:26:10.292Z,3.41
2023-04-03T08:29:35.649Z,3.48
2023-04-03T08:33:00.753Z,3.43
2023-04-03T08:36:25.993Z,3.42
2023-04-03T08:39:51.224Z,3.42
2023-04-03T08:43:16.528Z,3.42
2023-04-03T08:46:42.004Z,3.39
2023-04-03T08:50:07.279Z,3.27
2023-04-03T08:53:32.496Z,3.17
2023-04-03T08:56:57.889Z,3.2
2023-04-03T09:00:23.186Z,3.27
2023-04-03T09:03:48.666Z,3.25
2023-04-03T09:07:13.749Z,3.2
2023-04-03T09:10:39.181Z,3.2
2023-04-03T09:14:04.600Z,3.15
2023-04-03T09:17:29.939Z,3.16
2023-04-03T09:20:55.517Z,3.2
2023-04-03T09:24:20.696Z,3.22
2023-04-03T09:27:46.054Z,3.21
2023-04-03T09:31:11.363Z,3.21
2023-04-03T09:34:36.694Z,3.35
2023-04-03T09:38:02.101Z,3.63
2023-04-03T09:41:27.338Z,3.82
2023-04-03T09:44:52.630Z,3.87
2023-04-03T09:48:17.958Z,3.86
2023-04-03T09:51:43.273Z,3.72
2023-04-03T09:55:08.756Z,3.61
2023-04-03T09:58:43.095Z,3.55
2023-04-03T10:01:59.731Z,3.57
2023-04-03T10:05:25.084Z,3.62
2023-04-03T10:08:50.745Z,3.67
2023-04-03T10:12:16.153Z,3.64
2023-04-03T10:15:41.281Z,3.69
2023-04-03T10:19:06.586Z,3.93
2023-04-03T10:22:31.833Z,4.07
2023-04-03T10:25:57.153Z,4.17
2023-04-03T10:29:22.549Z,4.31
2023-04-03T10:32:47.803Z,4.51
2023-04-03T10:36:13.004Z,4.65
2023-04-03T10:39:38.206Z,4.83
2023-04-03T10:43:03.450Z,5.07
2023-04-03T10:46:28.956Z,5.26
2023-04-03T10:49:59.822Z,5.44
2023-04-03T10:53:19.280Z,5.65
2023-04-03T10:56:44.558Z,5.82
2023-04-03T11:00:09.881Z,5.98
2023-04-03T11:03:35.715Z,6.06
2023-04-03T11:07:00.454Z,6.07
2023-04-03T11:10:25.766Z,6
2023-04-03T11:13:51.316Z,5.94
2023-04-03T11:17:16.727Z,5.76
2023-04-03T11:20:42.342Z,5.67
2023-04-03T11:24:07.699Z,5.66
2023-04-03T11:27:33.198Z,5.58
2023-04-03T11:30:59.334Z,5.53
2023-04-03T11:34:24.195Z,5.43
2023-04-03T11:37:49.710Z,5.42
2023-04-03T11:41:15.085Z,5.39
2023-04-03T11:44:40.658Z,5.58
2023-04-03T11:48:17.013Z,5.66
2023-04-03T11:51:31.792Z,5.52
2023-04-03T11:54:57.745Z,5.41
2023-04-03T11:58:23.389Z,5.53
2023-04-03T12:01:49.100Z,5.66
2023-04-03T12:05:14.693Z,5.69
2023-04-03T12:08:40.437Z,5.69
2023-04-03T12:12:06.299Z,5.76
2023-04-03T12:15:31.750Z,5.88
2023-04-03T12:18:57.199Z,6.04
2023-04-03T12:22:22.774Z,6.27
2023-04-03T12:25:48.231Z,6.27
2023-04-03T12:29:13.800Z,6.15
2023-04-03T12:32:39.165Z,6.19
2023-04-03T12:36:04.700Z,6.21
2023-04-03T12:39:30.351Z,6.15
2023-04-03T12:42:56.293Z,6.12
2023-04-03T12:46:22.117Z,6.18
2023-04-03T12:49:47.669Z,6.29
2023-04-03T12:53:13.334Z,6.38
2023-04-03T12:56:39.031Z,6.33
2023-04-03T13:00:04.833Z,6.42
2023-04-03T13:03:30.694Z,6.3
2023-04-03T13:06:56.139Z,6.15
2023-04-03T13:10:21.695Z,5.98
2023-04-03T13:13:47.256Z,5.98
2023-04-03T13:17:12.780Z,6.09
2023-04-03T13:20:38.615Z,6.11
2023-04-03T13:24:14.490Z,6.09
2023-04-03T13:27:29.769Z,6.02
2023-04-03T13:30:55.239Z,5.95
2023-04-03T13:34:20.688Z,5.9
2023-04-03T13:37:46.246Z,5.79
2023-04-03T13:41:11.587Z,5.59
2023-04-03T13:44:36.963Z,5.56
2023-04-03T13:48:05.389Z,5.49
2023-04-03T13:51:27.868Z,5.42
2023-04-03T13:54:53.404Z,5.5
2023-04-03T13:58:19.538Z,5.51
2023-04-03T14:01:45.010Z,5.58
2023-04-03T14:05:10.214Z,5.63
2023-04-03T14:08:42.741Z,5.72
2023-04-03T14:12:00.852Z,5.89
2023-04-03T14:15:26.190Z,5.87
2023-04-03T14:18:51.794Z,5.75
2023-04-03T14:22:17.074Z,5.64
2023-04-03T14:25:42.380Z,5.58
2023-04-03T14:29:07.745Z,5.69
2023-04-03T14:32:33.031Z,5.96
2023-04-03T14:35:58.321Z,5.99
2023-04-03T14:39:23.562Z,5.88
2023-04-03T14:42:48.843Z,5.69
2023-04-03T14:46:14.183Z,5.52
2023-04-03T14:49:39.502Z,5.56
2023-04-03T14:53:04.790Z,5.74
2023-04-03T14:56:30.080Z,5.97
2023-04-03T14:59:55.349Z,5.95
2023-04-03T15:03:20.881Z,5.77
2023-04-03T15:06:46.085Z,5.6
2023-04-03T15:39:08.908Z,3.25
2023-04-03T15:42:34.169Z,4.12
2023-04-03T15:45:59.524Z,4.27
2023-04-03T15:49:24.744Z,4.53
2023-04-03T15:52:49.982Z,4.69
2023-04-03T15:56:15.228Z,4.76
2023-04-03T15:59:40.500Z,4.82
2023-04-03T16:03:05.760Z,4.83
2023-04-03T16:06:31.040Z,4.87
2023-04-03T16:09:56.299Z,4.85
2023-04-03T16:13:21.552Z,4.78
2023-04-03T16:16:46.769Z,4.68
2023-04-03T16:20:12.037Z,4.6
2023-04-03T16:23:37.216Z,4.59
2023-04-03T16:27:02.462Z,4.66
2023-04-03T16:30:27.748Z,4.68
2023-04-03T16:33:53.007Z,4.61
2023-04-03T16:37:18.331Z,4.56
2023-04-03T16:40:43.594Z,4.58
2023-04-03T16:44:08.878Z,4.56
2023-04-03T16:47:34.218Z,4.52
2023-04-03T16:50:59.494Z,4.46
2023-04-03T16:54:25.023Z,4.42
2023-04-03T16:57:50.291Z,4.4
2023-04-03T17:01:15.630Z,4.36
2023-04-03T17:04:40.858Z,4.29
2023-04-03T17:08:06.065Z,4.22
2023-04-03T17:11:31.344Z,4.15
2023-04-03T17:14:56.641Z,4.17
2023-04-03T17:18:21.867Z,4.15
2023-04-03T17:21:47.140Z,4.16
2023-04-03T17:25:12.373Z,4.23
2023-04-03T17:28:37.621Z,4.25
2023-04-03T17:32:03.113Z,4.25
2023-04-03T17:35:28.640Z,4.25
2023-04-03T17:38:54.261Z,4.26
2023-04-03T17:42:19.884Z,4.31
2023-04-03T17:45:45.465Z,4.27
2023-04-03T17:49:10.998Z,4.2
2023-04-03T17:52:36.596Z,4.16
2023-04-03T17:56:02.264Z,4.06
2023-04-03T17:59:27.886Z,3.98
2023-04-03T18:02:53.371Z,3.89
2023-04-03T18:06:18.965Z,3.84
2023-04-03T18:09:44.583Z,3.81
2023-04-03T18:13:10.193Z,3.75
2023-04-03T18:16:35.780Z,3.67
2023-04-03T18:20:01.283Z,3.68
2023-04-03T18:23:27.475Z,3.74
2023-04-03T18:26:57.580Z,3.81
2023-04-03T18:30:23.160Z,3.87
2023-04-03T18:33:48.658Z,3.87
2023-04-03T18:37:15.366Z,3.85
2023-04-03T18:40:40.925Z,3.8
2023-04-03T18:44:05.919Z,3.81
2023-04-03T18:47:31.289Z,3.79
2023-04-03T18:50:56.483Z,3.75
2023-04-03T18:54:23.166Z,3.65
2023-04-03T18:57:48.433Z,3.63
2023-04-03T19:01:13.802Z,3.63
2023-04-03T19:04:39.024Z,3.59
2023-04-03T19:08:04.365Z,3.5
2023-04-03T19:11:30.090Z,3.35
2023-04-03T19:14:54.910Z,3.25
2023-04-03T19:18:20.197Z,3.17
2023-04-03T19:21:45.506Z,3.08
2023-04-03T19:25:10.759Z,3.02
2023-04-03T19:28:36.069Z,3.02
2023-04-03T19:32:01.375Z,3.01
2023-04-03T19:35:26.699Z,3.02
2023-04-03T19:38:51.973Z,3.02
2023-04-03T19:42:17.206Z,2.98
2023-04-03T19:45:42.567Z,2.91
2023-04-03T19:49:07.731Z,2.93
2023-04-03T19:52:33.014Z,2.92
2023-04-03T19:55:58.308Z,2.92
2023-04-03T19:59:23.619Z,2.92
2023-04-03T20:02:48.908Z,2.96
2023-04-03T20:06:14.212Z,2.98
2023-04-03T20:09:39.501Z,3
2023-04-03T20:13:04.935Z,3.02
2023-04-03T20:16:30.357Z,3.05
2023-04-03T20:19:55.508Z,3.06
2023-04-03T20:23:20.827Z,3.06
2023-04-03T20:26:46.227Z,3.04
2023-04-03T20:30:11.550Z,3
2023-04-03T20:33:36.889Z,2.93
2023-04-03T20:37:02.273Z,2.91
2023-04-03T20:40:27.535Z,2.9
2023-04-03T20:43:52.874Z,2.93
2023-04-03T20:47:18.312Z,2.97
2023-04-03T20:50:43.628Z,2.96
2023-04-03T20:54:08.794Z,2.93
2023-04-03T20:57:34.120Z,2.9
2023-04-03T21:00:59.478Z,2.84
2023-04-03T21:04:24.761Z,2.88
2023-04-03T21:07:50.030Z,2.94
2023-04-03T21:11:15.356Z,3.01
2023-04-03T21:14:40.675Z,2.98
2023-04-03T21:18:06.020Z,2.97
2023-04-03T21:21:31.425Z,2.96
2023-04-03T21:24:56.627Z,2.96
2023-04-03T21:28:21.930Z,2.9
2023-04-03T21:31:47.264Z,2.85
2023-04-03T21:35:12.583Z,2.88
2023-04-03T21:38:37.901Z,2.87
2023-04-03T21:42:03.256Z,2.77
2023-04-03T21:45:28.553Z,2.69
2023-04-03T21:48:53.884Z,2.65
2023-04-03T21:52:19.183Z,2.7
2023-04-03T21:55:44.523Z,2.73
2023-04-03T21:59:09.910Z,2.71
2023-04-03T22:02:35.155Z,2.74
2023-04-03T22:06:00.475Z,2.76
2023-04-03T22:09:25.804Z,2.64
2023-04-03T22:12:51.225Z,2.51
2023-04-03T22:16:16.564Z,2.41
2023-04-03T22:19:41.925Z,2.35
2023-04-03T22:23:07.308Z,2.29
2023-04-03T22:26:32.645Z,2.29
2023-04-03T22:29:58.047Z,2.33
2023-04-03T22:33:23.307Z,2.36
2023-04-03T22:36:48.676Z,2.35
2023-04-03T22:40:13.976Z,2.35
2023-04-03T22:43:39.343Z,2.32
2023-04-03T22:47:04.795Z,2.33
2023-04-03T22:50:29.962Z,2.35
2023-04-03T22:53:55.312Z,2.38
2023-04-03T22:57:20.660Z,2.37
2023-04-03T23:00:46.010Z,2.36
2023-04-03T23:04:11.340Z,2.38
2023-04-03T23:07:36.644Z,2.38
2023-04-03T23:11:01.950Z,2.35
2023-04-03T23:14:27.256Z,2.35
2023-04-03T23:17:52.613Z,2.36
2023-04-03T23:21:17.892Z,2.38
2023-04-03T23:24:43.213Z,2.43
2023-04-03T23:28:08.577Z,2.47
2023-04-03T23:31:33.869Z,2.51
2023-04-03T23:34:59.119Z,2.6
2023-04-03T23:38:24.514Z,2.66
2023-04-03T23:41:49.693Z,2.77
2023-04-03T23:45:14.984Z,2.86
2023-04-03T23:48:40.281Z,2.98
2023-04-03T23:52:05.633Z,3.08
2023-04-03T23:55:30.916Z,3.12
2023-04-03T23:58:56.185Z,3.15
